createdAt,value
2023-05-08T00:00:39.462Z,102182.97
2023-05-08T00:03:43.728Z,102189.22
2023-05-08T00:06:48.381Z,102188.44
2023-05-08T00:09:52.604Z,102187.59
2023-05-08T00:12:57.241Z,102178.06
2023-05-08T00:16:02.494Z,102189.34
2023-05-08T00:19:07.834Z,102197.22
2023-05-08T00:22:12.030Z,102192.84
2023-05-08T00:25:16.565Z,102179.91
2023-05-08T00:28:21.413Z,102177.41
2023-05-08T00:31:25.536Z,102196.66
2023-05-08T00:34:29.495Z,102192.28
2023-05-08T00:37:33.722Z,102196.69
2023-05-08T00:40:38.171Z,102197.56
2023-05-08T00:43:42.687Z,102202.97
2023-05-08T00:46:47.364Z,102206.53
2023-05-08T00:49:52.011Z,102205.59
2023-05-08T00:52:58.656Z,102210.06
2023-05-08T00:56:04.079Z,102219.69
2023-05-08T00:59:11.997Z,102209.19
2023-05-08T01:02:16.994Z,102212.66
2023-05-08T01:05:21.294Z,102201.25
2023-05-08T01:08:25.856Z,102209.13
2023-05-08T01:11:55.563Z,102205.72
2023-05-08T01:15:14.209Z,102204.09
2023-05-08T01:18:36.241Z,102202.50
2023-05-08T01:21:50.439Z,102206.84
2023-05-08T01:25:25.432Z,102205.97
2023-05-08T01:28:44.267Z,102214.78
2023-05-08T01:32:07.067Z,102205.97
2023-05-08T01:35:32.730Z,102207.75
2023-05-08T01:39:04.504Z,102209.56
2023-05-08T01:42:45.592Z,102210.50
2023-05-08T01:45:52.920Z,102216.56
2023-05-08T01:49:28.330Z,102215.84
2023-05-08T01:52:42.902Z,102207.22
2023-05-08T01:55:53.702Z,102210.06
2023-05-08T01:59:01.430Z,102214.31
2023-05-08T02:02:06.850Z,102213.56
2023-05-08T02:05:12.711Z,102208.25
2023-05-08T02:08:19.597Z,102215.38
2023-05-08T02:11:25.043Z,102215.44
2023-05-08T02:14:31.143Z,102209.38
2023-05-08T02:17:38.166Z,102203.31
2023-05-08T02:20:42.746Z,102210.38
2023-05-08T02:23:47.797Z,102207.78
2023-05-08T02:26:54.429Z,102221.78
2023-05-08T02:30:00.641Z,102213.97
2023-05-08T02:33:09.420Z,102219.34
2023-05-08T02:36:17.757Z,102208.97
2023-05-08T02:39:30.351Z,102219.41
2023-05-08T02:42:34.595Z,102219.47
2023-05-08T02:45:58.190Z,102220.44
2023-05-08T02:49:16.413Z,102204.69
2023-05-08T02:52:35.377Z,102203.03
2023-05-08T02:56:02.418Z,102209.19
2023-05-08T02:59:47.123Z,102193.50
2023-05-08T03:02:57.629Z,102181.25
2023-05-08T03:06:06.705Z,102176.84
2023-05-08T03:09:19.115Z,102160.28
2023-05-08T03:12:28.051Z,102167.41
2023-05-08T03:15:43.291Z,102174.44
2023-05-08T03:18:54.907Z,102177.19
2023-05-08T03:22:01.968Z,102170.16
2023-05-08T03:25:10.595Z,102165.78
2023-05-08T03:28:16.110Z,102158.84
2023-05-08T03:31:22.456Z,102156.25
2023-05-08T03:34:28.795Z,102158.97
2023-05-08T03:37:33.193Z,102162.47
2023-05-08T03:40:42.750Z,102162.44
2023-05-08T03:43:47.808Z,102161.53
2023-05-08T03:46:55.825Z,102156.38
2023-05-08T03:50:00.855Z,102154.75
2023-05-08T03:53:05.571Z,102151.22
2023-05-08T03:56:10.200Z,102140.72
2023-05-08T03:59:28.105Z,102143.31
2023-05-08T04:02:49.913Z,102141.59
2023-05-08T04:06:28.731Z,102142.47
2023-05-08T04:09:38.969Z,102134.56
2023-05-08T04:13:07.149Z,102132.00
2023-05-08T04:16:25.174Z,102132.88
2023-05-08T04:19:34.810Z,102143.31
2023-05-08T04:22:42.094Z,102146.69
2023-05-08T04:25:48.487Z,102140.53
2023-05-08T04:28:53.326Z,102135.22
2023-05-08T04:31:57.929Z,102144.81
2023-05-08T04:35:06.035Z,102149.19
2023-05-08T04:38:10.788Z,102150.00
2023-05-08T04:41:16.015Z,102157.78
2023-05-08T04:44:20.140Z,102156.91
2023-05-08T04:47:24.855Z,102156.84
2023-05-08T04:50:29.219Z,102162.97
2023-05-08T04:53:33.904Z,102168.19
2023-05-08T04:56:38.100Z,102162.09
2023-05-08T04:59:42.534Z,102161.31
2023-05-08T05:02:47.098Z,102167.44
2023-05-08T05:05:59.098Z,102169.09
2023-05-08T05:09:04.785Z,102172.50
2023-05-08T05:12:09.179Z,102163.75
2023-05-08T05:15:13.362Z,102165.41
2023-05-08T05:18:18.424Z,102160.16
2023-05-08T05:21:22.835Z,102165.47
2023-05-08T05:24:27.202Z,102158.38
2023-05-08T05:27:31.688Z,102170.44
2023-05-08T05:30:36.030Z,102176.44
2023-05-08T05:33:40.556Z,102164.88
2023-05-08T05:36:45.087Z,102157.78
2023-05-08T05:39:49.522Z,102159.41
2023-05-08T05:42:54.266Z,102167.91
2023-05-08T05:46:06.094Z,102160.72
2023-05-08T05:49:11.865Z,102165.72
2023-05-08T05:52:16.640Z,102165.41
2023-05-08T05:55:20.962Z,102165.28
2023-05-08T05:58:25.753Z,102172.06
2023-05-08T06:01:29.885Z,102163.09
2023-05-08T06:04:34.715Z,102156.03
2023-05-08T06:07:39.791Z,102147.03
2023-05-08T06:10:44.447Z,102146.84
2023-05-08T06:13:50.505Z,102153.63
2023-05-08T06:16:55.062Z,102153.47
2023-05-08T06:19:59.444Z,102154.50
2023-05-08T06:23:04.178Z,102142.97
2023-05-08T06:26:08.775Z,102153.22
2023-05-08T06:29:13.552Z,102138.97
2023-05-08T06:32:22.099Z,102147.75
2023-05-08T06:35:29.063Z,102146.72
2023-05-08T06:38:35.961Z,102155.22
2023-05-08T06:41:43.635Z,102143.31
2023-05-08T06:44:50.738Z,102147.13
2023-05-08T06:47:55.938Z,102128.34
2023-05-08T06:51:00.689Z,102129.56
2023-05-08T06:54:08.256Z,102122.31
2023-05-08T06:57:14.756Z,102125.53
2023-05-08T07:00:19.473Z,102119.16
2023-05-08T07:03:24.110Z,102124.91
2023-05-08T07:06:28.671Z,102110.34
2023-05-08T07:09:32.985Z,102114.53
2023-05-08T07:12:37.898Z,102108.41
2023-05-08T07:15:45.356Z,102114.44
2023-05-08T07:18:49.809Z,102114.16
2023-05-08T07:21:55.233Z,102110.53
2023-05-08T07:24:59.836Z,102114.59
2023-05-08T07:28:05.285Z,102095.31
2023-05-08T07:31:09.705Z,102101.41
2023-05-08T07:34:14.836Z,102109.19
2023-05-08T07:37:19.231Z,102098.44
2023-05-08T07:40:29.170Z,102104.56
2023-05-08T07:43:34.031Z,102094.78
2023-05-08T07:46:39.162Z,102087.88
2023-05-08T07:49:46.397Z,102086.19
2023-05-08T07:52:52.794Z,102091.00
2023-05-08T07:55:57.379Z,102084.41
2023-05-08T07:59:04.007Z,102079.22
2023-05-08T08:02:09.065Z,102078.38
2023-05-08T08:05:14.472Z,102082.53
2023-05-08T08:08:20.049Z,102078.50
2023-05-08T08:11:40.773Z,102083.44
2023-05-08T08:14:50.832Z,102089.16
2023-05-08T08:18:16.671Z,102089.16
2023-05-08T08:21:54.597Z,102083.88
2023-05-08T08:24:59.037Z,102087.31
2023-05-08T08:28:17.463Z,102073.31
2023-05-08T08:32:17.366Z,102080.25
2023-05-08T08:35:40.667Z,102074.28
2023-05-08T08:40:23.128Z,102075.69
2023-05-08T08:43:28.829Z,102073.63
2023-05-08T08:46:33.658Z,102075.66
2023-05-08T08:49:47.499Z,102082.25
2023-05-08T08:53:34.523Z,102086.50
2023-05-08T08:56:44.525Z,102089.25
2023-05-08T08:59:50.970Z,102079.44
2023-05-08T09:02:55.797Z,102067.63
2023-05-08T09:06:01.806Z,102071.34
2023-05-08T09:09:07.330Z,102062.13
2023-05-08T09:12:19.066Z,102076.16
2023-05-08T09:15:26.219Z,102063.97
2023-05-08T09:18:35.750Z,102077.47
2023-05-08T09:21:41.600Z,102073.41
2023-05-08T09:25:04.684Z,102076.44
2023-05-08T09:28:23.824Z,102060.38
2023-05-08T09:31:42.098Z,102069.03
2023-05-08T09:34:53.421Z,102063.34
2023-05-08T09:39:06.113Z,102053.94
2023-05-08T09:43:03.693Z,102058.09
2023-05-08T09:46:25.316Z,102053.66
2023-05-08T09:49:26.513Z,102044.81
2023-05-08T09:55:59.254Z,102042.66
2023-05-08T09:59:27.648Z,102033.94
2023-05-08T10:02:32.968Z,102030.50
2023-05-08T10:05:37.366Z,102038.91
2023-05-08T10:08:41.888Z,102036.75
2023-05-08T10:11:54.524Z,102043.56
2023-05-08T10:14:59.650Z,102028.88
2023-05-08T10:18:07.350Z,102025.38
2023-05-08T10:21:12.120Z,102032.41
2023-05-08T10:24:44.145Z,102021.81
2023-05-08T10:28:11.940Z,102028.72
2023-05-08T10:31:18.705Z,102022.78
2023-05-08T10:34:27.379Z,102021.59
2023-05-08T10:37:42.714Z,102018.78
2023-05-08T10:41:05.051Z,102013.59
2023-05-08T10:56:06.319Z,101973.31
2023-05-08T11:00:02.165Z,101980.75
2023-05-08T11:03:31.531Z,101973.50
2023-05-08T11:10:42.066Z,101955.00
2023-05-08T11:18:00.182Z,101962.56
2023-05-08T11:21:14.300Z,101960.66
2023-05-08T11:24:18.648Z,101956.06
2023-05-08T11:27:35.565Z,101960.19
2023-05-08T11:30:40.649Z,101972.13
2023-05-08T11:34:11.117Z,101960.00
2023-05-08T11:37:29.159Z,101966.69
2023-05-08T11:40:49.853Z,101966.50
2023-05-08T11:44:04.556Z,101957.84
2023-05-08T11:47:09.809Z,101969.31
2023-05-08T11:50:14.875Z,101959.66
2023-05-08T11:53:19.323Z,101961.47
2023-05-08T11:56:24.747Z,101970.09
2023-05-08T11:59:29.110Z,101954.56
2023-05-08T12:02:42.613Z,101956.91
2023-05-08T12:05:48.995Z,101959.44
2023-05-08T12:08:53.578Z,101964.16
2023-05-08T12:11:58.549Z,101950.84
2023-05-08T12:15:12.032Z,101945.72
2023-05-08T12:18:17.856Z,101944.53
2023-05-08T12:21:37.150Z,101945.81
2023-05-08T12:24:41.867Z,101929.66
2023-05-08T12:27:55.628Z,101926.38
2023-05-08T12:31:13.443Z,101924.28
2023-05-08T12:34:22.985Z,101917.16
2023-05-08T12:37:28.475Z,101932.13
2023-05-08T12:40:42.913Z,101928.31
2023-05-08T12:43:49.699Z,101931.66
2023-05-08T12:46:57.676Z,101921.91
2023-05-08T12:50:05.240Z,101918.38
2023-05-08T12:57:52.452Z,101911.97
2023-05-08T13:01:46.037Z,101911.56
2023-05-08T13:05:05.268Z,101904.16
2023-05-08T13:08:15.022Z,101914.34
2023-05-08T13:11:33.038Z,101909.47
2023-05-08T13:14:37.450Z,101917.75
2023-05-08T13:17:41.886Z,101917.66
2023-05-08T13:20:47.362Z,101901.06
2023-05-08T13:23:51.603Z,101890.63
2023-05-08T13:26:55.935Z,101888.56
2023-05-08T13:29:38.579Z,101901.91
2023-05-08T13:32:43.072Z,101870.06
2023-05-08T13:35:48.250Z,101869.44
2023-05-08T13:39:17.970Z,101870.53
2023-05-08T13:42:22.313Z,101872.06
2023-05-08T13:45:26.719Z,101864.19
2023-05-08T13:48:31.201Z,101866.38
2023-05-08T13:51:35.486Z,101861.91
2023-05-08T13:54:40.077Z,101859.31
2023-05-08T13:57:45.531Z,101864.91
2023-05-08T14:00:56.348Z,101862.13
2023-05-08T14:04:01.341Z,101849.25
2023-05-08T14:07:06.220Z,101846.84
2023-05-08T14:10:17.374Z,101844.16
2023-05-08T14:13:26.793Z,101849.38
2023-05-08T14:16:33.123Z,101842.19
2023-05-08T14:19:40.207Z,101845.59
2023-05-08T14:22:59.585Z,101843.91
2023-05-08T14:29:04.693Z,101839.22
2023-05-08T14:32:10.940Z,101835.97
2023-05-08T14:35:15.586Z,101830.97
2023-05-08T14:38:20.215Z,101831.91
2023-05-08T14:41:29.158Z,101829.06
2023-05-08T14:44:33.419Z,101829.75
2023-05-08T14:47:38.806Z,101824.38
2023-05-08T14:50:43.054Z,101810.00
2023-05-08T14:53:48.686Z,101822.25
2023-05-08T14:56:53.392Z,101814.16
2023-05-08T14:59:57.914Z,101807.94
2023-05-08T15:45:46.407Z,101787.53
2023-05-08T15:54:06.601Z,101782.22
2023-05-08T16:01:36.960Z,101772.94
2023-05-08T16:05:22.560Z,101785.31
2023-05-08T16:08:44.118Z,101785.81
2023-05-08T17:12:48.245Z,101745.59
2023-05-08T20:32:36.648Z,101777.25
2023-05-08T21:37:14.726Z,101748.75
2023-05-08T22:28:57.894Z,101691.91
2023-05-08T22:36:40.614Z,101700.81
2023-05-08T23:05:40.647Z,101678.88
2023-05-08T23:10:01.127Z,101678.00
2023-05-08T23:13:30.932Z,101681.56
2023-05-08T23:17:26.213Z,101677.59
2023-05-08T23:20:38.953Z,101664.25
2023-05-08T23:24:34.849Z,101660.63
2023-05-08T23:27:59.914Z,101666.19
2023-05-08T23:31:31.552Z,101668.91
2023-05-08T23:35:28.331Z,101662.31
2023-05-08T23:39:14.994Z,101662.13
2023-05-08T23:43:08.795Z,101652.63
